Terminal Aerodrome Forecast
Issued by NWS Wilmington, OH

Current Version | Previous Version | Graphics & Text | Print | Product List | Glossary On
Versions: 1 2 3 4 5 6 7 8 9 10 11 12
427
FTUS41 KILN 221136
TAFILN
TAF
KILN 221136Z 2212/2312 04010KT P6SM SCT050 OVC130
     FM221700 04012G18KT P6SM OVC050
     FM230600 05009KT P6SM BKN150=

USA.gov is the U.S. government's official web portal to all federal, state and local government web resources and services.